< < Back
Terminal Aerodrome Forecast


Current Version              Previous Versions:   1  2  3  4  5  6  7  8  9  

Terminal Aerodrome Forecast

098
FTUS42 KTAE 242300
TAFTLH
TAF
KTLH 242320Z 2500/2524 33005KT P6SM SKC=



Latest METAR

530
SAUS80 KWBC 250300 CCA
MTRTLH
METAR KTLH 250253Z 00000KT 10SM CLR 12/08 A3002 RMK AO2 SLP165 LAST
AUGMENTED OBS T01220083 51014 $


USA.gov is the U.S. government's official web portal to all federal, state and local government web resources and services.